createdAt,value
2018-07-08T00:02:22.757Z,5.20
2018-07-08T00:04:53.591Z,6.10
2018-07-08T00:07:24.361Z,6.50
2018-07-08T00:09:55.191Z,2.53
2018-07-08T00:12:25.935Z,2.50
2018-07-08T00:14:56.719Z,4.70
2018-07-08T00:17:27.418Z,6.20
2018-07-08T00:19:58.204Z,4.37
2018-07-08T00:22:28.976Z,2.83
2018-07-08T00:24:59.764Z,2.93
2018-07-08T00:27:30.569Z,5.23
2018-07-08T00:30:01.295Z,3.40
2018-07-08T00:32:31.999Z,3.23
2018-07-08T00:35:02.708Z,6.10
2018-07-08T00:37:33.432Z,6.00
2018-07-08T00:40:04.217Z,3.87
2018-07-08T00:42:34.952Z,2.87
2018-07-08T00:45:05.761Z,4.87
2018-07-08T00:47:36.449Z,5.03
2018-07-08T00:50:07.177Z,3.87
2018-07-08T00:52:37.901Z,3.70
2018-07-08T00:55:09.011Z,4.40
2018-07-08T00:57:39.800Z,5.43
2018-07-08T01:00:28.683Z,4.27
2018-07-08T01:02:59.740Z,2.67
2018-07-08T01:05:30.927Z,4.10
2018-07-08T01:08:02.312Z,3.73
2018-07-08T01:10:33.072Z,4.07
2018-07-08T01:13:03.919Z,3.43
2018-07-08T01:15:34.580Z,2.37
2018-07-08T01:18:05.649Z,5.90
2018-07-08T01:20:36.400Z,5.50
2018-07-08T01:23:07.127Z,4.80
2018-07-08T01:25:54.765Z,4.33
2018-07-08T01:28:25.427Z,4.87
2018-07-08T01:30:56.149Z,3.57
2018-07-08T01:33:26.819Z,6.23
2018-07-08T01:35:57.570Z,5.03
2018-07-08T01:38:59.010Z,4.67
2018-07-08T01:41:29.704Z,4.40
2018-07-08T01:44:00.390Z,5.93
2018-07-08T01:46:31.073Z,5.30
2018-07-08T01:49:01.781Z,2.97
2018-07-08T01:51:32.482Z,3.97
2018-07-08T01:54:03.273Z,6.17
2018-07-08T01:56:34.068Z,5.57
2018-07-08T01:59:05.117Z,4.07
2018-07-08T02:01:35.857Z,3.47
2018-07-08T02:04:06.672Z,4.87
2018-07-08T02:06:37.383Z,3.97
2018-07-08T02:09:14.696Z,4.93
2018-07-08T02:11:45.688Z,5.00
2018-07-08T02:14:16.481Z,6.10
2018-07-08T02:16:47.226Z,5.00
2018-07-08T02:19:17.947Z,5.77
2018-07-08T02:21:48.683Z,6.17
2018-07-08T02:24:19.512Z,3.43
2018-07-08T02:26:50.509Z,6.20
2018-07-08T02:29:21.275Z,5.27
2018-07-08T02:31:52.127Z,7.47
2018-07-08T02:34:22.774Z,6.90
2018-07-08T02:36:53.773Z,9.70
2018-07-08T02:39:25.171Z,5.53
2018-07-08T02:41:56.456Z,6.43
2018-07-08T02:44:27.325Z,4.70
2018-07-08T02:46:58.037Z,4.60
2018-07-08T02:49:28.839Z,4.67
2018-07-08T02:51:59.588Z,4.40
2018-07-08T02:54:30.305Z,5.53
2018-07-08T02:57:01.021Z,6.73
2018-07-08T02:59:31.700Z,6.23
2018-07-08T03:02:02.375Z,6.87
2018-07-08T03:04:33.112Z,5.10
2018-07-08T03:07:03.880Z,4.73
2018-07-08T03:09:34.560Z,4.77
2018-07-08T03:12:05.354Z,5.00
2018-07-08T03:14:36.041Z,5.43
2018-07-08T03:17:06.770Z,5.13
2018-07-08T03:22:38.776Z,4.43
2018-07-08T03:25:09.459Z,9.90
2018-07-08T03:27:40.140Z,7.40
2018-07-08T03:30:10.853Z,5.60
2018-07-08T03:32:41.539Z,3.73
2018-07-08T03:35:12.331Z,5.80
2018-07-08T03:37:43.011Z,8.40
2018-07-08T03:40:13.715Z,7.43
2018-07-08T03:42:44.391Z,6.20
2018-07-08T03:45:15.036Z,6.50
2018-07-08T03:47:45.770Z,10.13
2018-07-08T03:50:16.440Z,7.47
2018-07-08T03:52:47.135Z,6.47
2018-07-08T03:55:17.855Z,5.47
2018-07-08T03:57:48.575Z,4.03
2018-07-08T04:00:19.206Z,5.37
2018-07-08T04:02:49.931Z,8.07
2018-07-08T04:05:20.652Z,10.30
2018-07-08T04:07:51.395Z,7.80
2018-07-08T04:10:22.067Z,9.97
2018-07-08T04:12:52.750Z,6.27
2018-07-08T04:15:23.462Z,7.80
2018-07-08T04:17:58.947Z,6.63
2018-07-08T04:20:29.614Z,6.90
2018-07-08T04:23:00.532Z,8.03
2018-07-08T04:25:31.491Z,6.53
2018-07-08T04:28:02.321Z,5.70
2018-07-08T04:30:33.013Z,4.60
2018-07-08T04:33:03.732Z,4.43
2018-07-08T04:35:34.419Z,6.03
2018-07-08T04:38:05.181Z,8.93
2018-07-08T04:40:35.906Z,6.37
2018-07-08T04:43:06.709Z,7.23
2018-07-08T04:45:37.426Z,7.40
2018-07-08T04:48:08.134Z,7.27
2018-07-08T04:50:38.812Z,5.57
2018-07-08T04:53:09.509Z,7.93
2018-07-08T04:55:40.136Z,5.87
2018-07-08T04:58:10.815Z,6.73
2018-07-08T05:00:41.454Z,9.23
2018-07-08T05:03:12.184Z,7.63
2018-07-08T05:05:42.511Z,7.00
2018-07-08T05:08:13.373Z,5.37
2018-07-08T05:10:44.055Z,12.63
2018-07-08T05:13:14.747Z,6.90
2018-07-08T05:15:45.399Z,5.67
2018-07-08T05:18:16.038Z,8.17
2018-07-08T05:20:46.756Z,6.67
2018-07-08T05:23:17.432Z,4.93
2018-07-08T05:25:48.125Z,7.47
2018-07-08T05:28:18.768Z,5.33
2018-07-08T05:30:49.485Z,5.57
2018-07-08T05:33:20.221Z,6.10
2018-07-08T05:35:50.906Z,5.70
2018-07-08T05:38:21.616Z,8.77
2018-07-08T05:40:52.283Z,6.03
2018-07-08T05:43:23.004Z,8.37
2018-07-08T05:45:53.640Z,7.77
2018-07-08T05:48:24.333Z,4.90
2018-07-08T05:50:55.046Z,5.57
2018-07-08T05:53:25.726Z,7.20
2018-07-08T05:55:56.469Z,4.33
2018-07-08T05:58:27.169Z,7.07
2018-07-08T06:00:57.885Z,6.17
2018-07-08T06:03:28.580Z,6.17
2018-07-08T06:05:59.367Z,6.83
2018-07-08T06:08:30.181Z,8.03
2018-07-08T06:11:00.867Z,5.37
2018-07-08T06:13:31.565Z,5.43
2018-07-08T06:16:05.145Z,6.97
2018-07-08T06:18:35.828Z,7.83
2018-07-08T06:21:06.649Z,6.60
2018-07-08T06:23:37.336Z,5.33
2018-07-08T06:26:08.920Z,4.50
2018-07-08T06:28:39.648Z,7.33
2018-07-08T06:31:10.660Z,8.77
2018-07-08T06:33:41.315Z,5.17
2018-07-08T06:36:12.051Z,2.43
2018-07-08T06:38:42.748Z,5.33
2018-07-08T06:41:13.506Z,5.93
2018-07-08T06:43:44.233Z,3.73
2018-07-08T06:46:14.977Z,5.37
2018-07-08T06:48:45.641Z,4.50
2018-07-08T06:51:16.419Z,4.13
2018-07-08T06:53:47.283Z,4.40
2018-07-08T06:56:17.993Z,4.70
2018-07-08T06:58:48.703Z,6.10
2018-07-08T07:01:19.365Z,3.57
2018-07-08T07:03:56.812Z,3.40
2018-07-08T07:06:27.524Z,3.93
2018-07-08T07:08:58.184Z,5.40
2018-07-08T07:11:28.864Z,5.17
2018-07-08T07:13:59.543Z,2.97
2018-07-08T07:16:30.223Z,5.27
2018-07-08T07:19:00.902Z,5.50
2018-07-08T07:21:31.521Z,3.93
2018-07-08T07:24:02.190Z,3.27
2018-07-08T07:26:32.875Z,5.13
2018-07-08T07:29:03.543Z,3.30
2018-07-08T07:31:34.269Z,3.17
2018-07-08T07:34:04.992Z,2.77
2018-07-08T07:36:35.842Z,2.63
2018-07-08T07:39:07.517Z,3.83
2018-07-08T07:41:38.196Z,1.50
2018-07-08T07:44:08.880Z,6.33
2018-07-08T07:46:39.518Z,3.23
2018-07-08T07:49:10.208Z,5.03
2018-07-08T07:51:40.907Z,2.17
2018-07-08T07:54:11.615Z,3.73
2018-07-08T07:56:42.324Z,2.17
2018-07-08T07:59:12.961Z,3.47
2018-07-08T08:01:43.667Z,2.23
2018-07-08T08:04:14.386Z,2.27
2018-07-08T08:06:45.073Z,2.70
2018-07-08T08:09:15.816Z,2.20
2018-07-08T08:11:46.487Z,3.10
2018-07-08T08:14:17.202Z,2.47
2018-07-08T08:16:47.931Z,5.70
2018-07-08T08:19:18.623Z,3.20
2018-07-08T08:21:49.319Z,3.77
2018-07-08T08:24:19.985Z,3.90
2018-07-08T08:26:50.805Z,2.70
2018-07-08T08:29:21.404Z,4.80
2018-07-08T08:31:52.088Z,2.60
2018-07-08T08:35:09.503Z,5.37
2018-07-08T08:37:46.326Z,1.80
2018-07-08T08:40:17.925Z,1.77
2018-07-08T08:42:48.692Z,1.93
2018-07-08T08:45:20.216Z,3.33
2018-07-08T08:47:50.946Z,3.83
2018-07-08T08:50:21.653Z,1.87
2018-07-08T08:52:52.414Z,2.63
2018-07-08T08:55:23.082Z,3.20
2018-07-08T08:57:53.791Z,3.00
2018-07-08T09:00:24.456Z,2.27
2018-07-08T09:02:55.159Z,2.40
2018-07-08T09:05:25.802Z,1.60
2018-07-08T09:07:56.465Z,1.53
2018-07-08T09:10:27.187Z,3.33
2018-07-08T09:12:57.841Z,3.77
2018-07-08T09:15:28.500Z,3.93
2018-07-08T09:17:59.242Z,2.00
2018-07-08T09:20:29.931Z,2.37
2018-07-08T09:23:00.633Z,1.47
2018-07-08T09:25:31.253Z,1.83
2018-07-08T09:28:01.897Z,2.50
2018-07-08T09:30:32.622Z,2.23
2018-07-08T09:33:03.265Z,2.27
2018-07-08T09:35:33.958Z,1.57
2018-07-08T09:38:04.634Z,1.37
2018-07-08T09:40:35.333Z,3.17
2018-07-08T09:43:06.064Z,3.40
2018-07-08T09:45:36.741Z,3.53
2018-07-08T09:48:07.429Z,2.23
2018-07-08T09:50:38.143Z,2.57
2018-07-08T09:53:08.848Z,6.17
2018-07-08T09:55:39.509Z,1.37
2018-07-08T09:58:10.154Z,1.63
2018-07-08T10:00:40.816Z,2.63
2018-07-08T10:03:11.501Z,1.70
2018-07-08T10:05:42.172Z,2.13
2018-07-08T10:08:12.820Z,3.90
2018-07-08T10:10:43.523Z,2.53
2018-07-08T10:13:14.151Z,1.03
2018-07-08T10:15:44.861Z,1.53
2018-07-08T10:18:15.478Z,1.83
2018-07-08T10:20:46.545Z,2.60
2018-07-08T10:23:17.248Z,1.53
2018-07-08T10:25:47.949Z,2.30
2018-07-08T10:28:19.810Z,2.30
2018-07-08T10:30:50.809Z,1.43
2018-07-08T10:33:21.578Z,1.40
2018-07-08T10:35:58.995Z,1.03
2018-07-08T10:38:29.708Z,1.47
2018-07-08T10:41:00.385Z,2.30
2018-07-08T10:43:31.079Z,2.23
2018-07-08T10:46:01.724Z,1.87
2018-07-08T10:48:32.402Z,2.37
2018-07-08T10:51:03.078Z,1.00
2018-07-08T10:53:33.760Z,1.60
2018-07-08T10:56:04.473Z,1.73
2018-07-08T10:58:35.177Z,1.17
2018-07-08T11:01:05.883Z,2.47
2018-07-08T11:03:36.647Z,1.97
2018-07-08T11:06:07.424Z,2.73
2018-07-08T11:08:38.132Z,1.63
2018-07-08T11:11:08.832Z,1.30
2018-07-08T11:13:39.575Z,1.27
2018-07-08T11:16:10.298Z,2.30
2018-07-08T11:18:41.097Z,2.20
2018-07-08T11:21:11.832Z,0.80
2018-07-08T11:23:42.560Z,1.70
2018-07-08T11:26:13.263Z,1.40
2018-07-08T11:28:43.611Z,1.87
2018-07-08T11:31:14.280Z,2.13
2018-07-08T11:33:44.911Z,2.57
2018-07-08T11:36:15.613Z,1.83
2018-07-08T11:38:46.298Z,2.03
2018-07-08T11:41:17.087Z,1.37
2018-07-08T11:43:47.879Z,3.33
2018-07-08T11:46:18.590Z,1.63
2018-07-08T11:48:49.293Z,2.37
2018-07-08T11:51:19.908Z,2.43
2018-07-08T11:53:50.656Z,1.50
2018-07-08T11:56:21.295Z,1.30
2018-07-08T11:58:51.988Z,1.50
2018-07-08T12:01:22.775Z,3.00
2018-07-08T12:03:53.509Z,2.60
2018-07-08T12:06:24.295Z,2.23
2018-07-08T12:08:54.978Z,2.00
2018-07-08T12:11:25.744Z,2.47
2018-07-08T12:13:56.491Z,1.73
2018-07-08T12:16:27.242Z,1.80
2018-07-08T12:18:57.900Z,2.10
2018-07-08T12:21:28.643Z,2.90
2018-07-08T12:23:59.282Z,1.70
2018-07-08T12:26:30.050Z,2.30
2018-07-08T12:29:00.677Z,1.10
2018-07-08T12:31:31.356Z,2.10
2018-07-08T12:34:02.070Z,1.17
2018-07-08T12:36:32.732Z,1.13
2018-07-08T12:39:03.771Z,1.60
2018-07-08T12:41:34.392Z,1.40
2018-07-08T12:44:05.251Z,1.97
2018-07-08T12:46:35.865Z,2.27
2018-07-08T12:49:06.297Z,1.53
2018-07-08T12:51:36.959Z,4.33
2018-07-08T12:54:07.665Z,1.43
2018-07-08T12:56:38.334Z,2.70
2018-07-08T12:59:09.027Z,2.67
2018-07-08T13:01:39.692Z,2.37
2018-07-08T13:04:10.446Z,3.03
2018-07-08T13:06:41.206Z,2.60
2018-07-08T13:09:11.841Z,1.70
2018-07-08T13:11:42.632Z,1.10
2018-07-08T13:14:13.340Z,1.57
2018-07-08T13:16:44.029Z,1.63
2018-07-08T13:19:14.690Z,2.27
2018-07-08T13:21:45.359Z,2.07
2018-07-08T13:24:16.038Z,2.83
2018-07-08T13:26:46.705Z,2.90
2018-07-08T13:29:17.385Z,1.40
2018-07-08T13:31:48.081Z,2.57
2018-07-08T13:34:18.771Z,2.33
2018-07-08T13:36:49.473Z,3.03
2018-07-08T13:39:20.196Z,2.50
2018-07-08T13:41:50.832Z,1.40
2018-07-08T13:44:21.497Z,1.97
2018-07-08T13:46:52.263Z,2.77
2018-07-08T13:49:26.365Z,1.50
2018-07-08T13:51:57.024Z,3.57
2018-07-08T13:54:27.719Z,1.33
2018-07-08T13:56:58.423Z,2.47
2018-07-08T13:59:29.186Z,2.93
2018-07-08T14:01:59.900Z,1.67
2018-07-08T14:04:30.612Z,2.20
2018-07-08T14:07:01.295Z,3.03
2018-07-08T14:09:32.440Z,2.37
2018-07-08T14:12:03.191Z,4.33
2018-07-08T14:14:34.015Z,2.87
2018-07-08T14:17:04.713Z,1.97
2018-07-08T14:19:38.357Z,2.50
2018-07-08T14:22:09.022Z,1.57
2018-07-08T14:24:39.708Z,1.50
2018-07-08T14:27:10.372Z,2.43
2018-07-08T14:29:41.081Z,2.10
2018-07-08T14:32:11.778Z,2.47
2018-07-08T14:34:42.477Z,2.73
2018-07-08T14:37:13.254Z,2.57
2018-07-08T14:39:43.987Z,3.00
2018-07-08T14:42:14.715Z,2.10
2018-07-08T14:44:45.574Z,2.27
2018-07-08T14:47:16.140Z,1.60
2018-07-08T14:49:46.831Z,4.50
2018-07-08T14:52:17.540Z,3.17
2018-07-08T14:54:48.266Z,1.37
2018-07-08T14:57:18.912Z,1.60
2018-07-08T14:59:49.590Z,1.97
2018-07-08T15:02:20.323Z,2.20
2018-07-08T15:04:51.075Z,2.63
2018-07-08T15:07:21.784Z,2.00
2018-07-08T15:09:52.503Z,3.33
2018-07-08T15:12:23.319Z,1.90
2018-07-08T15:14:54.088Z,1.60
2018-07-08T15:17:24.853Z,1.67
2018-07-08T15:19:55.587Z,2.70
2018-07-08T15:22:26.249Z,2.60
2018-07-08T15:24:56.943Z,1.90
2018-07-08T15:27:27.570Z,1.23
2018-07-08T15:29:57.909Z,2.53
2018-07-08T15:32:28.428Z,7.13
2018-07-08T15:34:59.195Z,3.23
2018-07-08T15:37:29.934Z,2.97
2018-07-08T15:40:00.640Z,2.07
2018-07-08T15:42:31.420Z,3.60
2018-07-08T15:45:02.312Z,2.57
2018-07-08T15:47:33.164Z,2.27
2018-07-08T15:50:03.948Z,2.33
2018-07-08T15:52:34.721Z,1.43
2018-07-08T15:55:05.827Z,2.70
2018-07-08T15:57:36.673Z,1.63
2018-07-08T16:00:07.402Z,1.50
2018-07-08T16:02:38.061Z,1.63
2018-07-08T16:05:08.746Z,1.57
2018-07-08T16:07:39.449Z,2.03
2018-07-08T16:10:10.192Z,2.60
2018-07-08T16:12:40.872Z,1.70
2018-07-08T16:15:11.556Z,2.87
2018-07-08T16:17:42.316Z,2.63
2018-07-08T16:20:12.991Z,2.17
2018-07-08T16:22:43.774Z,1.77
2018-07-08T16:25:14.474Z,1.73
2018-07-08T16:27:45.148Z,1.37
2018-07-08T16:30:15.844Z,1.90
2018-07-08T16:32:46.652Z,3.50
2018-07-08T16:35:17.381Z,2.57
2018-07-08T16:37:48.140Z,1.70
2018-07-08T16:40:18.841Z,1.40
2018-07-08T16:42:49.593Z,3.10
2018-07-08T16:45:20.323Z,1.30
2018-07-08T16:47:51.020Z,1.20
2018-07-08T16:50:21.786Z,2.27
2018-07-08T16:52:52.167Z,1.63
2018-07-08T16:55:22.819Z,1.43
2018-07-08T16:57:53.498Z,1.97
2018-07-08T17:00:24.173Z,2.30
2018-07-08T17:02:54.908Z,2.30
2018-07-08T17:05:25.575Z,1.80
2018-07-08T17:07:56.367Z,1.53
2018-07-08T17:10:27.148Z,2.83
2018-07-08T17:12:58.145Z,2.63
2018-07-08T17:15:29.207Z,2.00
2018-07-08T17:17:59.932Z,1.97
2018-07-08T17:20:30.685Z,2.23
2018-07-08T17:23:01.477Z,1.50
2018-07-08T17:25:32.346Z,3.03
2018-07-08T17:28:09.027Z,4.60
2018-07-08T17:30:39.453Z,5.07
2018-07-08T17:33:10.031Z,1.33
2018-07-08T17:35:40.740Z,1.10
2018-07-08T17:38:11.488Z,1.33
2018-07-08T17:40:42.160Z,2.27
2018-07-08T17:43:12.899Z,1.70
2018-07-08T17:45:43.695Z,2.53
2018-07-08T17:48:14.416Z,1.70
2018-07-08T17:50:45.164Z,2.63
2018-07-08T17:53:15.911Z,2.00
2018-07-08T17:55:46.635Z,2.27
2018-07-08T17:58:17.381Z,2.03
2018-07-08T18:00:48.112Z,2.67
2018-07-08T18:03:19.303Z,3.83
2018-07-08T18:05:50.004Z,1.83
2018-07-08T18:08:20.772Z,3.47
2018-07-08T18:11:05.998Z,3.03
2018-07-08T18:13:36.748Z,4.03
2018-07-08T18:16:07.669Z,2.93
2018-07-08T18:18:38.532Z,4.37
2018-07-08T18:21:09.444Z,2.07
2018-07-08T18:23:40.314Z,2.67
2018-07-08T18:26:11.150Z,1.00
2018-07-08T18:28:41.884Z,1.03
2018-07-08T18:31:12.696Z,1.73
2018-07-08T18:33:43.467Z,1.83
2018-07-08T18:36:14.245Z,1.23
2018-07-08T18:38:45.125Z,2.33
2018-07-08T18:41:15.939Z,2.37
2018-07-08T18:43:46.784Z,1.33
2018-07-08T18:46:17.735Z,1.57
2018-07-08T18:48:48.604Z,3.37
2018-07-08T18:51:19.384Z,1.10
2018-07-08T18:53:50.278Z,2.03
2018-07-08T18:56:21.163Z,1.43
2018-07-08T18:58:52.225Z,1.83
2018-07-08T19:01:22.920Z,4.20
2018-07-08T19:03:54.135Z,3.03
2018-07-08T19:06:24.995Z,1.40
2018-07-08T19:08:55.733Z,2.30
2018-07-08T19:11:26.523Z,2.60
2018-07-08T19:13:57.256Z,2.73
2018-07-08T19:16:28.095Z,2.40
2018-07-08T19:18:58.843Z,2.40
2018-07-08T19:21:29.498Z,2.63
2018-07-08T19:24:00.264Z,1.17
2018-07-08T19:26:30.800Z,2.13
2018-07-08T19:29:01.784Z,2.63
2018-07-08T19:31:32.665Z,4.17
2018-07-08T19:34:03.467Z,2.87
2018-07-08T19:36:34.202Z,0.90
2018-07-08T19:39:06.319Z,1.37
2018-07-08T19:41:39.150Z,2.30
2018-07-08T19:44:09.890Z,1.10
2018-07-08T19:46:40.692Z,4.20
2018-07-08T19:49:11.338Z,4.83
2018-07-08T19:51:42.494Z,4.10
2018-07-08T19:54:13.221Z,1.90
2018-07-08T19:57:46.879Z,2.43
2018-07-08T20:00:17.574Z,2.27
2018-07-08T20:02:48.308Z,1.63
2018-07-08T20:05:19.048Z,2.47
2018-07-08T20:07:49.851Z,1.30
2018-07-08T20:10:20.557Z,1.40
2018-07-08T20:12:51.253Z,8.10
2018-07-08T20:18:54.445Z,1.77
2018-07-08T20:21:25.417Z,1.40
2018-07-08T20:23:56.154Z,1.53
2018-07-08T20:26:26.542Z,2.60
2018-07-08T20:28:57.252Z,2.17
2018-07-08T20:31:27.974Z,2.60
2018-07-08T20:33:58.657Z,2.13
2018-07-08T20:36:29.836Z,3.40
2018-07-08T20:39:00.655Z,1.93
2018-07-08T20:41:31.393Z,2.77
2018-07-08T20:44:02.157Z,2.70
2018-07-08T20:46:32.814Z,2.27
2018-07-08T20:49:03.527Z,4.07
2018-07-08T20:51:34.210Z,2.90
2018-07-08T20:54:04.931Z,2.60
2018-07-08T20:56:36.272Z,3.13
2018-07-08T20:59:10.027Z,3.63
2018-07-08T21:01:40.854Z,4.23
2018-07-08T21:04:11.660Z,1.73
2018-07-08T21:06:42.377Z,2.30
2018-07-08T21:09:13.991Z,2.77
2018-07-08T21:11:44.669Z,1.50
2018-07-08T21:14:15.369Z,3.87
2018-07-08T21:16:45.794Z,4.57
2018-07-08T21:19:16.365Z,2.73
2018-07-08T21:21:47.318Z,2.17
2018-07-08T21:24:18.057Z,2.20
2018-07-08T21:26:49.076Z,1.80
2018-07-08T21:29:19.856Z,2.63
2018-07-08T21:31:50.714Z,3.40
2018-07-08T21:34:21.412Z,1.60
2018-07-08T21:36:52.219Z,1.93
2018-07-08T21:39:22.957Z,1.73
2018-07-08T21:41:53.614Z,2.57
2018-07-08T21:44:24.302Z,2.93
2018-07-08T21:46:54.984Z,2.70
2018-07-08T21:49:25.662Z,1.80
2018-07-08T21:51:56.348Z,1.50
2018-07-08T21:54:27.032Z,2.77
2018-07-08T21:56:57.767Z,4.50
2018-07-08T21:59:28.531Z,1.50
2018-07-08T22:02:02.480Z,2.57
2018-07-08T22:04:33.223Z,6.30
2018-07-08T22:07:08.980Z,1.57
2018-07-08T22:09:39.693Z,2.70
2018-07-08T22:12:10.411Z,2.30
2018-07-08T22:14:41.124Z,2.10
2018-07-08T22:17:11.793Z,1.60
2018-07-08T22:19:42.613Z,3.20
2018-07-08T22:22:13.319Z,3.60
2018-07-08T22:24:44.053Z,2.53
2018-07-08T22:27:14.765Z,2.47
2018-07-08T22:29:45.544Z,4.07
2018-07-08T22:32:16.306Z,4.53
2018-07-08T22:34:47.178Z,4.13
2018-07-08T22:37:17.843Z,2.13
2018-07-08T22:39:48.927Z,1.97
2018-07-08T22:42:19.585Z,3.93
2018-07-08T22:44:50.435Z,1.87
2018-07-08T22:47:21.087Z,3.03
2018-07-08T22:49:51.831Z,3.10
2018-07-08T22:52:22.509Z,5.43
2018-07-08T22:54:53.307Z,1.70
2018-07-08T22:57:24.023Z,2.77
2018-07-08T23:00:11.562Z,4.20
2018-07-08T23:02:47.478Z,2.90
2018-07-08T23:05:18.343Z,2.27
2018-07-08T23:07:49.020Z,3.70
2018-07-08T23:10:19.729Z,4.33
2018-07-08T23:12:50.444Z,1.97
2018-07-08T23:15:21.133Z,3.50
2018-07-08T23:17:51.792Z,4.60
2018-07-08T23:20:22.483Z,2.47
2018-07-08T23:22:59.863Z,1.63
2018-07-08T23:25:30.595Z,3.03
2018-07-08T23:28:01.370Z,4.37
2018-07-08T23:30:32.107Z,2.53
2018-07-08T23:33:02.901Z,2.40
2018-07-08T23:35:33.595Z,2.83
2018-07-08T23:38:04.470Z,1.97
2018-07-08T23:40:35.229Z,2.57
2018-07-08T23:43:06.173Z,2.53
2018-07-08T23:45:36.921Z,2.97
2018-07-08T23:48:07.622Z,5.20
2018-07-08T23:50:38.427Z,2.60
2018-07-08T23:53:09.233Z,4.23
2018-07-08T23:55:40.167Z,4.50
2018-07-08T23:58:10.816Z,4.07
